sensor_id;sensor_type;location;lat;lon;timestamp;P1;durP1;ratioP1;P2;durP2;ratioP2
36593;SDS011;22603;47.900;8.146;2023-05-01T00:02:48;5.57;;;2.57;;
36593;SDS011;22603;47.900;8.146;2023-05-01T00:05:35;6.20;;;2.40;;
36593;SDS011;22603;47.900;8.146;2023-05-01T00:08:23;5.00;;;2.17;;
36593;SDS011;22603;47.900;8.146;2023-05-01T00:11:11;6.57;;;2.70;;
36593;SDS011;22603;47.900;8.146;2023-05-01T00:13:59;8.23;;;2.70;;
36593;SDS011;22603;47.900;8.146;2023-05-01T00:16:46;5.77;;;2.50;;
36593;SDS011;22603;47.900;8.146;2023-05-01T00:19:35;5.47;;;2.53;;
36593;SDS011;22603;47.900;8.146;2023-05-01T00:22:22;6.63;;;2.80;;
36593;SDS011;22603;47.900;8.146;2023-05-01T00:25:09;7.17;;;2.83;;
36593;SDS011;22603;47.900;8.146;2023-05-01T00:27:56;7.33;;;2.80;;
36593;SDS011;22603;47.900;8.146;2023-05-01T00:30:45;8.80;;;2.83;;
36593;SDS011;22603;47.900;8.146;2023-05-01T00:33:32;7.03;;;2.40;;
36593;SDS011;22603;47.900;8.146;2023-05-01T00:36:19;6.17;;;2.57;;
36593;SDS011;22603;47.900;8.146;2023-05-01T00:39:06;5.80;;;2.40;;
36593;SDS011;22603;47.900;8.146;2023-05-01T00:41:52;5.77;;;2.37;;
36593;SDS011;22603;47.900;8.146;2023-05-01T00:44:40;7.17;;;3.00;;
36593;SDS011;22603;47.900;8.146;2023-05-01T00:47:28;6.47;;;2.80;;
36593;SDS011;22603;47.900;8.146;2023-05-01T00:50:15;6.80;;;2.67;;
36593;SDS011;22603;47.900;8.146;2023-05-01T00:53:02;6.87;;;2.67;;
36593;SDS011;22603;47.900;8.146;2023-05-01T00:55:50;6.23;;;2.37;;
36593;SDS011;22603;47.900;8.146;2023-05-01T00:58:37;5.80;;;2.47;;
36593;SDS011;22603;47.900;8.146;2023-05-01T01:01:24;6.60;;;2.80;;
36593;SDS011;22603;47.900;8.146;2023-05-01T01:04:14;7.63;;;2.60;;
36593;SDS011;22603;47.900;8.146;2023-05-01T01:07:03;5.83;;;2.70;;
36593;SDS011;22603;47.900;8.146;2023-05-01T01:09:58;7.83;;;3.03;;
36593;SDS011;22603;47.900;8.146;2023-05-01T01:12:51;6.47;;;2.60;;
36593;SDS011;22603;47.900;8.146;2023-05-01T01:15:49;7.47;;;2.80;;
36593;SDS011;22603;47.900;8.146;2023-05-01T01:18:47;6.73;;;2.50;;
36593;SDS011;22603;47.900;8.146;2023-05-01T01:21:46;7.83;;;3.07;;
36593;SDS011;22603;47.900;8.146;2023-05-01T01:24:45;5.97;;;2.67;;
36593;SDS011;22603;47.900;8.146;2023-05-01T01:34:01;6.93;;;2.77;;
36593;SDS011;22603;47.900;8.146;2023-05-01T01:36:55;7.40;;;3.33;;
36593;SDS011;22603;47.900;8.146;2023-05-01T01:39:48;6.43;;;2.70;;
36593;SDS011;22603;47.900;8.146;2023-05-01T01:42:44;10.47;;;2.73;;
36593;SDS011;22603;47.900;8.146;2023-05-01T01:45:35;7.53;;;2.97;;
36593;SDS011;22603;47.900;8.146;2023-05-01T01:48:29;10.60;;;3.20;;
36593;SDS011;22603;47.900;8.146;2023-05-01T01:51:20;7.73;;;2.83;;
36593;SDS011;22603;47.900;8.146;2023-05-01T01:54:08;6.97;;;2.80;;
36593;SDS011;22603;47.900;8.146;2023-05-01T01:57:01;6.90;;;2.53;;
36593;SDS011;22603;47.900;8.146;2023-05-01T01:59:48;6.90;;;2.60;;
36593;SDS011;22603;47.900;8.146;2023-05-01T02:02:37;9.20;;;2.53;;
36593;SDS011;22603;47.900;8.146;2023-05-01T02:05:25;6.87;;;2.80;;
36593;SDS011;22603;47.900;8.146;2023-05-01T02:08:14;5.87;;;2.50;;
36593;SDS011;22603;47.900;8.146;2023-05-01T02:11:03;5.87;;;2.60;;
36593;SDS011;22603;47.900;8.146;2023-05-01T02:13:51;6.63;;;2.53;;
36593;SDS011;22603;47.900;8.146;2023-05-01T02:16:40;7.47;;;2.87;;
36593;SDS011;22603;47.900;8.146;2023-05-01T02:19:28;11.20;;;2.90;;
36593;SDS011;22603;47.900;8.146;2023-05-01T02:22:17;7.73;;;2.90;;
36593;SDS011;22603;47.900;8.146;2023-05-01T02:25:08;7.20;;;2.50;;
36593;SDS011;22603;47.900;8.146;2023-05-01T02:27:58;7.60;;;2.97;;
36593;SDS011;22603;47.900;8.146;2023-05-01T02:30:48;9.20;;;3.10;;
36593;SDS011;22603;47.900;8.146;2023-05-01T02:33:36;7.97;;;2.53;;
36593;SDS011;22603;47.900;8.146;2023-05-01T02:36:23;8.90;;;2.90;;
36593;SDS011;22603;47.900;8.146;2023-05-01T02:39:11;7.97;;;3.30;;
36593;SDS011;22603;47.900;8.146;2023-05-01T02:42:00;6.77;;;2.77;;
36593;SDS011;22603;47.900;8.146;2023-05-01T02:44:51;5.67;;;2.80;;
36593;SDS011;22603;47.900;8.146;2023-05-01T02:47:41;7.10;;;2.40;;
36593;SDS011;22603;47.900;8.146;2023-05-01T02:50:30;8.20;;;2.90;;
36593;SDS011;22603;47.900;8.146;2023-05-01T02:53:18;8.57;;;2.60;;
36593;SDS011;22603;47.900;8.146;2023-05-01T02:56:07;5.77;;;2.40;;
36593;SDS011;22603;47.900;8.146;2023-05-01T02:58:55;6.73;;;3.00;;
36593;SDS011;22603;47.900;8.146;2023-05-01T03:01:43;6.30;;;2.90;;
36593;SDS011;22603;47.900;8.146;2023-05-01T03:04:31;6.97;;;2.90;;
36593;SDS011;22603;47.900;8.146;2023-05-01T03:07:18;6.03;;;2.87;;
36593;SDS011;22603;47.900;8.146;2023-05-01T03:10:09;6.53;;;2.73;;
36593;SDS011;22603;47.900;8.146;2023-05-01T03:13:00;6.73;;;2.70;;
36593;SDS011;22603;47.900;8.146;2023-05-01T03:15:49;7.87;;;2.40;;
36593;SDS011;22603;47.900;8.146;2023-05-01T03:18:36;6.87;;;2.93;;
36593;SDS011;22603;47.900;8.146;2023-05-01T03:21:25;8.87;;;3.00;;
36593;SDS011;22603;47.900;8.146;2023-05-01T03:24:13;6.63;;;2.87;;
36593;SDS011;22603;47.900;8.146;2023-05-01T03:27:00;8.03;;;3.50;;
36593;SDS011;22603;47.900;8.146;2023-05-01T03:29:47;7.73;;;2.70;;
36593;SDS011;22603;47.900;8.146;2023-05-01T03:32:36;6.87;;;2.77;;
36593;SDS011;22603;47.900;8.146;2023-05-01T03:35:25;6.03;;;2.60;;
36593;SDS011;22603;47.900;8.146;2023-05-01T03:38:13;7.30;;;3.20;;
36593;SDS011;22603;47.900;8.146;2023-05-01T03:40:59;5.93;;;2.50;;
36593;SDS011;22603;47.900;8.146;2023-05-01T03:43:47;7.60;;;2.87;;
36593;SDS011;22603;47.900;8.146;2023-05-01T03:46:35;6.57;;;2.70;;
36593;SDS011;22603;47.900;8.146;2023-05-01T03:49:23;7.83;;;3.13;;
36593;SDS011;22603;47.900;8.146;2023-05-01T03:52:10;7.33;;;3.17;;
36593;SDS011;22603;47.900;8.146;2023-05-01T03:54:58;7.37;;;2.70;;
36593;SDS011;22603;47.900;8.146;2023-05-01T03:57:45;10.07;;;3.23;;
36593;SDS011;22603;47.900;8.146;2023-05-01T04:00:32;9.60;;;2.90;;
36593;SDS011;22603;47.900;8.146;2023-05-01T04:03:19;9.57;;;3.00;;
36593;SDS011;22603;47.900;8.146;2023-05-01T04:06:08;14.60;;;3.20;;
36593;SDS011;22603;47.900;8.146;2023-05-01T04:08:55;8.03;;;2.90;;
36593;SDS011;22603;47.900;8.146;2023-05-01T04:11:44;10.07;;;3.30;;
36593;SDS011;22603;47.900;8.146;2023-05-01T04:14:31;8.20;;;3.20;;
36593;SDS011;22603;47.900;8.146;2023-05-01T04:17:19;8.00;;;3.33;;
36593;SDS011;22603;47.900;8.146;2023-05-01T04:20:06;6.40;;;2.87;;
36593;SDS011;22603;47.900;8.146;2023-05-01T04:22:54;8.40;;;3.20;;
36593;SDS011;22603;47.900;8.146;2023-05-01T04:25:41;7.10;;;3.13;;
36593;SDS011;22603;47.900;8.146;2023-05-01T04:28:30;9.67;;;3.60;;
36593;SDS011;22603;47.900;8.146;2023-05-01T04:31:16;8.63;;;3.50;;
36593;SDS011;22603;47.900;8.146;2023-05-01T04:34:03;8.07;;;3.57;;
36593;SDS011;22603;47.900;8.146;2023-05-01T04:36:52;8.60;;;3.43;;
36593;SDS011;22603;47.900;8.146;2023-05-01T04:39:40;8.60;;;3.80;;
36593;SDS011;22603;47.900;8.146;2023-05-01T04:42:29;8.00;;;3.40;;
36593;SDS011;22603;47.900;8.146;2023-05-01T04:45:21;10.30;;;4.07;;
36593;SDS011;22603;47.900;8.146;2023-05-01T04:48:08;10.23;;;3.90;;
36593;SDS011;22603;47.900;8.146;2023-05-01T04:50:56;6.73;;;2.87;;
36593;SDS011;22603;47.900;8.146;2023-05-01T04:53:43;7.33;;;2.93;;
36593;SDS011;22603;47.900;8.146;2023-05-01T04:56:34;8.40;;;3.57;;
36593;SDS011;22603;47.900;8.146;2023-05-01T04:59:21;9.20;;;3.30;;
36593;SDS011;22603;47.900;8.146;2023-05-01T05:02:08;8.03;;;3.10;;
36593;SDS011;22603;47.900;8.146;2023-05-01T05:04:56;8.40;;;3.40;;
36593;SDS011;22603;47.900;8.146;2023-05-01T05:07:43;9.50;;;3.67;;
36593;SDS011;22603;47.900;8.146;2023-05-01T05:10:30;9.57;;;3.73;;
36593;SDS011;22603;47.900;8.146;2023-05-01T05:13:30;8.70;;;3.57;;
36593;SDS011;22603;47.900;8.146;2023-05-01T05:16:19;10.73;;;3.73;;
36593;SDS011;22603;47.900;8.146;2023-05-01T05:19:06;9.53;;;4.03;;
36593;SDS011;22603;47.900;8.146;2023-05-01T05:21:53;9.53;;;3.30;;
36593;SDS011;22603;47.900;8.146;2023-05-01T05:24:40;9.30;;;4.13;;
36593;SDS011;22603;47.900;8.146;2023-05-01T05:27:29;10.13;;;3.90;;
36593;SDS011;22603;47.900;8.146;2023-05-01T05:30:21;8.67;;;3.70;;
36593;SDS011;22603;47.900;8.146;2023-05-01T05:33:08;9.23;;;3.50;;
36593;SDS011;22603;47.900;8.146;2023-05-01T05:35:57;8.83;;;3.73;;
36593;SDS011;22603;47.900;8.146;2023-05-01T05:38:44;10.03;;;3.83;;
36593;SDS011;22603;47.900;8.146;2023-05-01T05:41:31;14.33;;;4.13;;
36593;SDS011;22603;47.900;8.146;2023-05-01T05:44:18;7.93;;;3.67;;
36593;SDS011;22603;47.900;8.146;2023-05-01T05:47:07;9.17;;;3.33;;
36593;SDS011;22603;47.900;8.146;2023-05-01T05:49:54;7.70;;;2.80;;
36593;SDS011;22603;47.900;8.146;2023-05-01T05:52:42;8.60;;;4.03;;
36593;SDS011;22603;47.900;8.146;2023-05-01T05:55:29;8.10;;;3.57;;
36593;SDS011;22603;47.900;8.146;2023-05-01T05:58:16;8.90;;;3.37;;
36593;SDS011;22603;47.900;8.146;2023-05-01T06:01:06;10.37;;;3.63;;
36593;SDS011;22603;47.900;8.146;2023-05-01T06:03:55;11.80;;;3.93;;
36593;SDS011;22603;47.900;8.146;2023-05-01T06:06:42;9.30;;;3.37;;
36593;SDS011;22603;47.900;8.146;2023-05-01T06:09:29;9.77;;;4.27;;
36593;SDS011;22603;47.900;8.146;2023-05-01T06:12:17;9.30;;;3.53;;
36593;SDS011;22603;47.900;8.146;2023-05-01T06:15:07;10.87;;;3.80;;
36593;SDS011;22603;47.900;8.146;2023-05-01T06:17:55;12.37;;;4.17;;
36593;SDS011;22603;47.900;8.146;2023-05-01T06:20:45;11.43;;;3.70;;
36593;SDS011;22603;47.900;8.146;2023-05-01T06:23:32;8.00;;;3.30;;
36593;SDS011;22603;47.900;8.146;2023-05-01T06:26:20;9.07;;;3.83;;
36593;SDS011;22603;47.900;8.146;2023-05-01T06:29:07;8.13;;;3.70;;
36593;SDS011;22603;47.900;8.146;2023-05-01T06:31:54;8.47;;;3.93;;
36593;SDS011;22603;47.900;8.146;2023-05-01T06:34:41;11.53;;;4.07;;
36593;SDS011;22603;47.900;8.146;2023-05-01T06:37:30;9.97;;;3.57;;
36593;SDS011;22603;47.900;8.146;2023-05-01T06:40:18;10.10;;;4.30;;
36593;SDS011;22603;47.900;8.146;2023-05-01T06:43:07;9.77;;;3.77;;
36593;SDS011;22603;47.900;8.146;2023-05-01T06:45:56;9.50;;;4.07;;
36593;SDS011;22603;47.900;8.146;2023-05-01T06:48:45;11.13;;;4.47;;
36593;SDS011;22603;47.900;8.146;2023-05-01T06:51:35;8.40;;;3.93;;
36593;SDS011;22603;47.900;8.146;2023-05-01T06:54:27;9.03;;;3.67;;
36593;SDS011;22603;47.900;8.146;2023-05-01T06:57:14;8.87;;;4.07;;
36593;SDS011;22603;47.900;8.146;2023-05-01T07:00:01;9.27;;;3.73;;
36593;SDS011;22603;47.900;8.146;2023-05-01T07:02:49;9.60;;;3.93;;
36593;SDS011;22603;47.900;8.146;2023-05-01T07:05:36;9.80;;;4.20;;
36593;SDS011;22603;47.900;8.146;2023-05-01T07:08:24;11.37;;;4.77;;
36593;SDS011;22603;47.900;8.146;2023-05-01T07:11:14;8.80;;;4.07;;
36593;SDS011;22603;47.900;8.146;2023-05-01T07:14:01;11.23;;;4.83;;
36593;SDS011;22603;47.900;8.146;2023-05-01T07:16:48;9.27;;;4.13;;
36593;SDS011;22603;47.900;8.146;2023-05-01T07:19:35;10.70;;;4.23;;
36593;SDS011;22603;47.900;8.146;2023-05-01T07:22:22;9.57;;;4.47;;
36593;SDS011;22603;47.900;8.146;2023-05-01T07:25:12;9.27;;;4.27;;
36593;SDS011;22603;47.900;8.146;2023-05-01T07:28:01;10.20;;;4.27;;
36593;SDS011;22603;47.900;8.146;2023-05-01T07:30:49;9.47;;;4.10;;
36593;SDS011;22603;47.900;8.146;2023-05-01T07:33:36;15.23;;;5.67;;
36593;SDS011;22603;47.900;8.146;2023-05-01T07:36:23;9.13;;;3.87;;
36593;SDS011;22603;47.900;8.146;2023-05-01T07:39:10;9.47;;;3.73;;
36593;SDS011;22603;47.900;8.146;2023-05-01T07:41:59;11.87;;;4.53;;
36593;SDS011;22603;47.900;8.146;2023-05-01T07:44:48;9.83;;;4.37;;
36593;SDS011;22603;47.900;8.146;2023-05-01T07:47:36;11.90;;;4.47;;
36593;SDS011;22603;47.900;8.146;2023-05-01T07:50:23;10.43;;;4.40;;
36593;SDS011;22603;47.900;8.146;2023-05-01T07:53:10;11.43;;;4.97;;
36593;SDS011;22603;47.900;8.146;2023-05-01T07:56:04;12.37;;;5.40;;
36593;SDS011;22603;47.900;8.146;2023-05-01T07:58:53;11.90;;;5.17;;
36593;SDS011;22603;47.900;8.146;2023-05-01T08:01:41;15.10;;;6.37;;
36593;SDS011;22603;47.900;8.146;2023-05-01T08:04:29;12.57;;;5.30;;
36593;SDS011;22603;47.900;8.146;2023-05-01T08:07:19;9.73;;;3.97;;
36593;SDS011;22603;47.900;8.146;2023-05-01T08:10:06;10.80;;;4.63;;
36593;SDS011;22603;47.900;8.146;2023-05-01T08:12:54;11.27;;;4.90;;
36593;SDS011;22603;47.900;8.146;2023-05-01T08:15:41;9.13;;;4.13;;
36593;SDS011;22603;47.900;8.146;2023-05-01T08:18:29;13.50;;;4.93;;
36593;SDS011;22603;47.900;8.146;2023-05-01T08:21:16;11.10;;;4.40;;
36593;SDS011;22603;47.900;8.146;2023-05-01T08:24:02;10.87;;;4.70;;
36593;SDS011;22603;47.900;8.146;2023-05-01T08:26:54;9.47;;;4.63;;
36593;SDS011;22603;47.900;8.146;2023-05-01T08:29:43;11.10;;;4.30;;
36593;SDS011;22603;47.900;8.146;2023-05-01T08:32:32;11.23;;;4.47;;
36593;SDS011;22603;47.900;8.146;2023-05-01T08:35:21;9.97;;;4.03;;
36593;SDS011;22603;47.900;8.146;2023-05-01T08:38:08;12.30;;;4.40;;
36593;SDS011;22603;47.900;8.146;2023-05-01T08:40:56;11.00;;;3.90;;
36593;SDS011;22603;47.900;8.146;2023-05-01T08:43:45;10.93;;;4.40;;
36593;SDS011;22603;47.900;8.146;2023-05-01T08:46:35;9.00;;;3.43;;
36593;SDS011;22603;47.900;8.146;2023-05-01T08:49:30;10.17;;;4.17;;
36593;SDS011;22603;47.900;8.146;2023-05-01T08:52:20;9.87;;;3.80;;
36593;SDS011;22603;47.900;8.146;2023-05-01T08:55:08;10.40;;;4.23;;
36593;SDS011;22603;47.900;8.146;2023-05-01T08:57:58;9.57;;;4.27;;
36593;SDS011;22603;47.900;8.146;2023-05-01T09:00:49;10.60;;;4.20;;
36593;SDS011;22603;47.900;8.146;2023-05-01T09:03:38;11.33;;;4.30;;
36593;SDS011;22603;47.900;8.146;2023-05-01T09:06:28;9.47;;;4.10;;
36593;SDS011;22603;47.900;8.146;2023-05-01T09:09:22;11.40;;;4.67;;
36593;SDS011;22603;47.900;8.146;2023-05-01T09:12:12;9.93;;;3.90;;
36593;SDS011;22603;47.900;8.146;2023-05-01T09:15:05;9.63;;;4.43;;
36593;SDS011;22603;47.900;8.146;2023-05-01T09:17:53;8.73;;;3.70;;
36593;SDS011;22603;47.900;8.146;2023-05-01T09:20:41;10.47;;;4.40;;
36593;SDS011;22603;47.900;8.146;2023-05-01T09:23:31;9.90;;;4.30;;
36593;SDS011;22603;47.900;8.146;2023-05-01T09:26:21;7.87;;;3.53;;
36593;SDS011;22603;47.900;8.146;2023-05-01T09:29:08;9.97;;;4.10;;
36593;SDS011;22603;47.900;8.146;2023-05-01T09:31:57;7.80;;;3.10;;
36593;SDS011;22603;47.900;8.146;2023-05-01T09:35:08;8.03;;;3.40;;
36593;SDS011;22603;47.900;8.146;2023-05-01T09:37:55;7.80;;;3.33;;
36593;SDS011;22603;47.900;8.146;2023-05-01T09:40:43;9.73;;;3.17;;
36593;SDS011;22603;47.900;8.146;2023-05-01T09:43:32;7.80;;;2.70;;
36593;SDS011;22603;47.900;8.146;2023-05-01T09:46:20;6.93;;;3.20;;
36593;SDS011;22603;47.900;8.146;2023-05-01T09:49:08;5.70;;;2.20;;
36593;SDS011;22603;47.900;8.146;2023-05-01T09:52:09;5.00;;;1.53;;
36593;SDS011;22603;47.900;8.146;2023-05-01T09:58:03;4.43;;;1.80;;
36593;SDS011;22603;47.900;8.146;2023-05-01T10:00:52;3.77;;;1.60;;
36593;SDS011;22603;47.900;8.146;2023-05-01T10:03:39;5.03;;;2.07;;
36593;SDS011;22603;47.900;8.146;2023-05-01T10:06:29;5.50;;;1.97;;
36593;SDS011;22603;47.900;8.146;2023-05-01T10:09:25;5.40;;;1.90;;
36593;SDS011;22603;47.900;8.146;2023-05-01T10:15:09;4.43;;;1.90;;
36593;SDS011;22603;47.900;8.146;2023-05-01T10:18:11;3.97;;;1.70;;
36593;SDS011;22603;47.900;8.146;2023-05-01T10:21:00;1.53;;;1.07;;
36593;SDS011;22603;47.900;8.146;2023-05-01T10:23:48;2.87;;;1.40;;
36593;SDS011;22603;47.900;8.146;2023-05-01T10:26:36;2.03;;;1.10;;
36593;SDS011;22603;47.900;8.146;2023-05-01T10:29:26;3.03;;;1.23;;
36593;SDS011;22603;47.900;8.146;2023-05-01T10:32:14;2.20;;;1.10;;
36593;SDS011;22603;47.900;8.146;2023-05-01T10:35:04;2.23;;;1.10;;
36593;SDS011;22603;47.900;8.146;2023-05-01T10:37:57;1.80;;;1.00;;
36593;SDS011;22603;47.900;8.146;2023-05-01T10:40:46;2.10;;;1.00;;
36593;SDS011;22603;47.900;8.146;2023-05-01T10:43:34;1.83;;;1.00;;
36593;SDS011;22603;47.900;8.146;2023-05-01T10:46:27;1.53;;;1.00;;
36593;SDS011;22603;47.900;8.146;2023-05-01T10:49:17;1.50;;;1.07;;
36593;SDS011;22603;47.900;8.146;2023-05-01T10:52:06;2.73;;;1.20;;
36593;SDS011;22603;47.900;8.146;2023-05-01T10:54:53;2.17;;;1.00;;
36593;SDS011;22603;47.900;8.146;2023-05-01T11:01:40;1.40;;;0.80;;
36593;SDS011;22603;47.900;8.146;2023-05-01T11:04:48;2.55;;;0.93;;
36593;SDS011;22603;47.900;8.146;2023-05-01T11:07:39;1.30;;;0.80;;
36593;SDS011;22603;47.900;8.146;2023-05-01T11:10:27;1.70;;;0.80;;
36593;SDS011;22603;47.900;8.146;2023-05-01T11:13:16;2.65;;;1.05;;
36593;SDS011;22603;47.900;8.146;2023-05-01T11:16:44;2.63;;;1.08;;
36593;SDS011;22603;47.900;8.146;2023-05-01T11:19:45;2.50;;;1.00;;
36593;SDS011;22603;47.900;8.146;2023-05-01T11:22:34;1.92;;;0.90;;
36593;SDS011;22603;47.900;8.146;2023-05-01T11:25:24;2.40;;;1.10;;
36593;SDS011;22603;47.900;8.146;2023-05-01T11:28:17;2.20;;;1.10;;
36593;SDS011;22603;47.900;8.146;2023-05-01T11:31:06;2.77;;;1.43;;
36593;SDS011;22603;47.900;8.146;2023-05-01T11:33:54;3.10;;;1.33;;
36593;SDS011;22603;47.900;8.146;2023-05-01T11:36:46;3.05;;;1.42;;
36593;SDS011;22603;47.900;8.146;2023-05-01T11:39:33;2.97;;;1.40;;
36593;SDS011;22603;47.900;8.146;2023-05-01T11:42:22;4.35;;;1.88;;
36593;SDS011;22603;47.900;8.146;2023-05-01T11:45:10;3.63;;;1.58;;
36593;SDS011;22603;47.900;8.146;2023-05-01T11:47:57;3.47;;;1.67;;
36593;SDS011;22603;47.900;8.146;2023-05-01T11:50:48;3.42;;;1.65;;
36593;SDS011;22603;47.900;8.146;2023-05-01T11:53:36;3.55;;;1.38;;
36593;SDS011;22603;47.900;8.146;2023-05-01T11:56:23;3.00;;;1.58;;
36593;SDS011;22603;47.900;8.146;2023-05-01T11:59:14;3.85;;;1.80;;
36593;SDS011;22603;47.900;8.146;2023-05-01T12:02:02;6.03;;;2.00;;
36593;SDS011;22603;47.900;8.146;2023-05-01T12:04:50;5.13;;;2.25;;
36593;SDS011;22603;47.900;8.146;2023-05-01T12:07:40;3.97;;;2.00;;
36593;SDS011;22603;47.900;8.146;2023-05-01T12:10:30;4.70;;;1.95;;
36593;SDS011;22603;47.900;8.146;2023-05-01T12:13:19;4.50;;;1.93;;
36593;SDS011;22603;47.900;8.146;2023-05-01T12:16:10;4.80;;;1.88;;
36593;SDS011;22603;47.900;8.146;2023-05-01T12:18:57;5.93;;;1.67;;
36593;SDS011;22603;47.900;8.146;2023-05-01T12:21:45;5.13;;;2.00;;
36593;SDS011;22603;47.900;8.146;2023-05-01T12:24:34;6.63;;;1.90;;
36593;SDS011;22603;47.900;8.146;2023-05-01T12:27:21;4.90;;;2.00;;
36593;SDS011;22603;47.900;8.146;2023-05-01T12:30:09;5.33;;;2.03;;
36593;SDS011;22603;47.900;8.146;2023-05-01T12:32:58;5.50;;;2.05;;
36593;SDS011;22603;47.900;8.146;2023-05-01T12:35:53;6.25;;;2.40;;
36593;SDS011;22603;47.900;8.146;2023-05-01T12:38:40;4.80;;;2.08;;
36593;SDS011;22603;47.900;8.146;2023-05-01T12:41:40;5.60;;;2.22;;
36593;SDS011;22603;47.900;8.146;2023-05-01T12:44:29;4.63;;;2.00;;
36593;SDS011;22603;47.900;8.146;2023-05-01T12:47:16;5.72;;;2.15;;
36593;SDS011;22603;47.900;8.146;2023-05-01T12:50:05;4.65;;;2.00;;
36593;SDS011;22603;47.900;8.146;2023-05-01T12:52:54;5.60;;;2.35;;
36593;SDS011;22603;47.900;8.146;2023-05-01T12:55:42;4.82;;;2.10;;
36593;SDS011;22603;47.900;8.146;2023-05-01T12:58:34;5.47;;;1.92;;
36593;SDS011;22603;47.900;8.146;2023-05-01T13:01:23;5.57;;;2.13;;
36593;SDS011;22603;47.900;8.146;2023-05-01T13:04:11;5.28;;;2.13;;
36593;SDS011;22603;47.900;8.146;2023-05-01T13:07:11;6.65;;;2.10;;
36593;SDS011;22603;47.900;8.146;2023-05-01T13:09:59;5.60;;;2.45;;
36593;SDS011;22603;47.900;8.146;2023-05-01T13:12:47;4.72;;;2.00;;
36593;SDS011;22603;47.900;8.146;2023-05-01T13:15:34;3.63;;;2.00;;
36593;SDS011;22603;47.900;8.146;2023-05-01T13:18:21;4.82;;;2.10;;
36593;SDS011;22603;47.900;8.146;2023-05-01T13:21:09;4.55;;;2.03;;
36593;SDS011;22603;47.900;8.146;2023-05-01T13:24:01;4.35;;;1.65;;
36593;SDS011;22603;47.900;8.146;2023-05-01T13:26:54;4.60;;;1.92;;
36593;SDS011;22603;47.900;8.146;2023-05-01T13:29:50;4.40;;;2.10;;
36593;SDS011;22603;47.900;8.146;2023-05-01T13:32:40;4.45;;;2.08;;
36593;SDS011;22603;47.900;8.146;2023-05-01T13:35:27;4.88;;;2.25;;
36593;SDS011;22603;47.900;8.146;2023-05-01T13:38:15;5.40;;;2.15;;
36593;SDS011;22603;47.900;8.146;2023-05-01T13:41:08;4.35;;;2.03;;
36593;SDS011;22603;47.900;8.146;2023-05-01T13:43:59;8.10;;;2.40;;
36593;SDS011;22603;47.900;8.146;2023-05-01T13:46:51;6.38;;;2.35;;
36593;SDS011;22603;47.900;8.146;2023-05-01T13:49:38;3.50;;;1.70;;
36593;SDS011;22603;47.900;8.146;2023-05-01T13:52:29;7.28;;;1.98;;
36593;SDS011;22603;47.900;8.146;2023-05-01T13:55:16;5.63;;;2.20;;
36593;SDS011;22603;47.900;8.146;2023-05-01T13:58:05;6.03;;;2.42;;
36593;SDS011;22603;47.900;8.146;2023-05-01T14:00:52;4.63;;;2.05;;
36593;SDS011;22603;47.900;8.146;2023-05-01T14:03:40;5.53;;;2.20;;
36593;SDS011;22603;47.900;8.146;2023-05-01T14:06:28;4.30;;;2.00;;
36593;SDS011;22603;47.900;8.146;2023-05-01T14:09:16;8.07;;;2.50;;
36593;SDS011;22603;47.900;8.146;2023-05-01T14:12:03;5.73;;;2.13;;
36593;SDS011;22603;47.900;8.146;2023-05-01T14:14:55;6.20;;;2.00;;
36593;SDS011;22603;47.900;8.146;2023-05-01T14:17:43;5.90;;;2.43;;
36593;SDS011;22603;47.900;8.146;2023-05-01T14:20:34;5.57;;;2.30;;
36593;SDS011;22603;47.900;8.146;2023-05-01T14:23:21;10.57;;;2.13;;
36593;SDS011;22603;47.900;8.146;2023-05-01T14:26:09;6.20;;;2.40;;
36593;SDS011;22603;47.900;8.146;2023-05-01T14:28:56;6.20;;;2.20;;
36593;SDS011;22603;47.900;8.146;2023-05-01T14:31:44;5.90;;;2.33;;
36593;SDS011;22603;47.900;8.146;2023-05-01T14:34:31;5.67;;;2.43;;
36593;SDS011;22603;47.900;8.146;2023-05-01T14:37:18;7.60;;;2.47;;
36593;SDS011;22603;47.900;8.146;2023-05-01T14:40:08;6.50;;;2.53;;
36593;SDS011;22603;47.900;8.146;2023-05-01T14:42:57;7.03;;;2.40;;
36593;SDS011;22603;47.900;8.146;2023-05-01T14:45:49;6.32;;;2.17;;
36593;SDS011;22603;47.900;8.146;2023-05-01T14:48:39;6.38;;;2.50;;
36593;SDS011;22603;47.900;8.146;2023-05-01T14:51:27;5.95;;;2.53;;
36593;SDS011;22603;47.900;8.146;2023-05-01T14:54:16;7.15;;;2.25;;
36593;SDS011;22603;47.900;8.146;2023-05-01T14:57:04;6.32;;;2.30;;
36593;SDS011;22603;47.900;8.146;2023-05-01T14:59:51;6.00;;;2.33;;
36593;SDS011;22603;47.900;8.146;2023-05-01T15:02:38;5.43;;;2.25;;
36593;SDS011;22603;47.900;8.146;2023-05-01T15:05:28;5.05;;;2.25;;
36593;SDS011;22603;47.900;8.146;2023-05-01T15:08:18;5.68;;;2.38;;
36593;SDS011;22603;47.900;8.146;2023-05-01T15:11:05;10.43;;;2.72;;
36593;SDS011;22603;47.900;8.146;2023-05-01T15:13:53;7.15;;;2.45;;
36593;SDS011;22603;47.900;8.146;2023-05-01T15:16:40;6.50;;;2.40;;
36593;SDS011;22603;47.900;8.146;2023-05-01T15:19:27;4.05;;;1.90;;
36593;SDS011;22603;47.900;8.146;2023-05-01T15:22:16;8.85;;;2.53;;
36593;SDS011;22603;47.900;8.146;2023-05-01T15:25:03;5.47;;;2.13;;
36593;SDS011;22603;47.900;8.146;2023-05-01T15:27:51;4.93;;;1.98;;
36593;SDS011;22603;47.900;8.146;2023-05-01T15:30:38;6.03;;;2.10;;
36593;SDS011;22603;47.900;8.146;2023-05-01T15:33:28;5.95;;;2.33;;
36593;SDS011;22603;47.900;8.146;2023-05-01T15:36:15;5.50;;;2.30;;
36593;SDS011;22603;47.900;8.146;2023-05-01T15:39:04;5.32;;;2.30;;
36593;SDS011;22603;47.900;8.146;2023-05-01T15:41:55;5.45;;;2.33;;
36593;SDS011;22603;47.900;8.146;2023-05-01T15:44:43;5.35;;;2.00;;
36593;SDS011;22603;47.900;8.146;2023-05-01T15:47:30;5.80;;;2.50;;
36593;SDS011;22603;47.900;8.146;2023-05-01T15:50:17;4.70;;;2.22;;
36593;SDS011;22603;47.900;8.146;2023-05-01T15:53:06;7.30;;;2.33;;
36593;SDS011;22603;47.900;8.146;2023-05-01T15:55:56;6.18;;;2.33;;
36593;SDS011;22603;47.900;8.146;2023-05-01T15:58:43;5.00;;;2.17;;
36593;SDS011;22603;47.900;8.146;2023-05-01T16:01:30;6.65;;;2.42;;
36593;SDS011;22603;47.900;8.146;2023-05-01T16:04:18;5.32;;;2.55;;
36593;SDS011;22603;47.900;8.146;2023-05-01T16:07:05;3.55;;;1.83;;
36593;SDS011;22603;47.900;8.146;2023-05-01T16:09:53;5.10;;;2.30;;
36593;SDS011;22603;47.900;8.146;2023-05-01T16:12:44;5.38;;;1.90;;
36593;SDS011;22603;47.900;8.146;2023-05-01T16:15:32;7.78;;;2.13;;
36593;SDS011;22603;47.900;8.146;2023-05-01T16:18:24;7.45;;;2.28;;
36593;SDS011;22603;47.900;8.146;2023-05-01T16:21:12;6.18;;;2.30;;
36593;SDS011;22603;47.900;8.146;2023-05-01T16:24:03;6.95;;;2.22;;
36593;SDS011;22603;47.900;8.146;2023-05-01T16:26:51;5.57;;;2.28;;
36593;SDS011;22603;47.900;8.146;2023-05-01T16:29:39;5.95;;;2.10;;
36593;SDS011;22603;47.900;8.146;2023-05-01T16:32:26;4.90;;;2.20;;
36593;SDS011;22603;47.900;8.146;2023-05-01T16:35:14;4.27;;;2.03;;
36593;SDS011;22603;47.900;8.146;2023-05-01T16:38:03;4.87;;;2.20;;
36593;SDS011;22603;47.900;8.146;2023-05-01T16:40:50;7.53;;;2.20;;
36593;SDS011;22603;47.900;8.146;2023-05-01T16:43:37;6.87;;;2.60;;
36593;SDS011;22603;47.900;8.146;2023-05-01T16:46:25;7.50;;;2.70;;
36593;SDS011;22603;47.900;8.146;2023-05-01T16:49:15;7.50;;;3.13;;
36593;SDS011;22603;47.900;8.146;2023-05-01T16:52:03;5.97;;;2.37;;
36593;SDS011;22603;47.900;8.146;2023-05-01T16:54:50;6.43;;;2.67;;
36593;SDS011;22603;47.900;8.146;2023-05-01T16:57:38;7.70;;;2.77;;
36593;SDS011;22603;47.900;8.146;2023-05-01T17:00:28;6.63;;;2.70;;
36593;SDS011;22603;47.900;8.146;2023-05-01T17:03:16;9.03;;;3.13;;
36593;SDS011;22603;47.900;8.146;2023-05-01T17:06:04;6.83;;;2.53;;
36593;SDS011;22603;47.900;8.146;2023-05-01T17:08:51;6.70;;;2.57;;
36593;SDS011;22603;47.900;8.146;2023-05-01T17:11:38;8.60;;;2.80;;
36593;SDS011;22603;47.900;8.146;2023-05-01T17:14:25;6.63;;;2.70;;